sensor_id;sensor_type;location;lat;lon;timestamp;temperature;humidity
21625;DHT22;10974;51.034;3.744;2022-11-15T04:18:59;10.90;99.90
21625;DHT22;10974;51.034;3.744;2022-11-15T04:21:43;10.80;99.90
21625;DHT22;10974;51.034;3.744;2022-11-15T04:24:27;10.80;99.90
21625;DHT22;10974;51.034;3.744;2022-11-15T04:26:53;10.80;99.90
21625;DHT22;10974;51.034;3.744;2022-11-15T04:29:19;10.80;99.90
21625;DHT22;10974;51.034;3.744;2022-11-15T04:32:00;10.80;99.90
21625;DHT22;10974;51.034;3.744;2022-11-15T04:34:26;10.70;99.90
21625;DHT22;10974;51.034;3.744;2022-11-15T04:36:51;10.70;99.90
21625;DHT22;10974;51.034;3.744;2022-11-15T04:39:36;10.70;99.90
21625;DHT22;10974;51.034;3.744;2022-11-15T04:42:01;10.60;99.90
21625;DHT22;10974;51.034;3.744;2022-11-15T04:44:27;10.60;99.90
21625;DHT22;10974;51.034;3.744;2022-11-15T04:46:52;10.50;99.90
21625;DHT22;10974;51.034;3.744;2022-11-15T04:49:18;10.50;99.90
21625;DHT22;10974;51.034;3.744;2022-11-15T04:51:44;10.50;99.90
21625;DHT22;10974;51.034;3.744;2022-11-15T04:54:10;10.50;99.90
21625;DHT22;10974;51.034;3.744;2022-11-15T04:56:35;10.40;99.90
21625;DHT22;10974;51.034;3.744;2022-11-15T04:59:01;10.40;99.90
21625;DHT22;10974;51.034;3.744;2022-11-15T05:01:27;10.30;99.90
21625;DHT22;10974;51.034;3.744;2022-11-15T05:03:52;10.30;99.90
21625;DHT22;10974;51.034;3.744;2022-11-15T05:06:37;10.30;99.90
21625;DHT22;10974;51.034;3.744;2022-11-15T05:09:03;10.20;99.90
21625;DHT22;10974;51.034;3.744;2022-11-15T05:11:29;10.20;99.90
21625;DHT22;10974;51.034;3.744;2022-11-15T05:13:55;10.20;99.90
21625;DHT22;10974;51.034;3.744;2022-11-15T05:16:20;10.20;99.90
21625;DHT22;10974;51.034;3.744;2022-11-15T05:18:46;10.20;99.90
21625;DHT22;10974;51.034;3.744;2022-11-15T05:21:14;10.10;99.90
21625;DHT22;10974;51.034;3.744;2022-11-15T05:23:40;10.10;99.90
21625;DHT22;10974;51.034;3.744;2022-11-15T05:26:10;10.10;99.90
21625;DHT22;10974;51.034;3.744;2022-11-15T05:28:36;10.10;99.90
21625;DHT22;10974;51.034;3.744;2022-11-15T05:31:11;10.00;99.90
21625;DHT22;10974;51.034;3.744;2022-11-15T05:33:39;10.00;99.90
21625;DHT22;10974;51.034;3.744;2022-11-15T05:38:37;10.00;99.90
21625;DHT22;10974;51.034;3.744;2022-11-15T05:41:03;9.90;99.90
21625;DHT22;10974;51.034;3.744;2022-11-15T05:43:31;9.90;99.90
21625;DHT22;10974;51.034;3.744;2022-11-15T05:45:58;9.80;99.90
21625;DHT22;10974;51.034;3.744;2022-11-15T05:48:25;9.80;99.90
21625;DHT22;10974;51.034;3.744;2022-11-15T05:50:51;9.80;99.90
21625;DHT22;10974;51.034;3.744;2022-11-15T05:53:19;9.80;99.90
21625;DHT22;10974;51.034;3.744;2022-11-15T05:55:46;9.70;99.90
21625;DHT22;10974;51.034;3.744;2022-11-15T05:58:12;9.60;99.90
21625;DHT22;10974;51.034;3.744;2022-11-15T06:00:37;9.60;99.90
21625;DHT22;10974;51.034;3.744;2022-11-15T06:03:03;9.60;99.90
21625;DHT22;10974;51.034;3.744;2022-11-15T06:05:29;9.50;99.90
21625;DHT22;10974;51.034;3.744;2022-11-15T06:07:57;9.50;99.90
21625;DHT22;10974;51.034;3.744;2022-11-15T06:10:24;9.50;99.90
21625;DHT22;10974;51.034;3.744;2022-11-15T06:13:01;9.50;99.90
21625;DHT22;10974;51.034;3.744;2022-11-15T06:15:27;9.40;99.90
21625;DHT22;10974;51.034;3.744;2022-11-15T06:17:52;9.40;99.90
21625;DHT22;10974;51.034;3.744;2022-11-15T06:20:26;9.40;99.90
21625;DHT22;10974;51.034;3.744;2022-11-15T06:22:57;9.40;99.90
21625;DHT22;10974;51.034;3.744;2022-11-15T06:25:23;9.30;99.90
21625;DHT22;10974;51.034;3.744;2022-11-15T06:27:53;9.30;99.90
21625;DHT22;10974;51.034;3.744;2022-11-15T06:30:19;9.30;99.90
21625;DHT22;10974;51.034;3.744;2022-11-15T06:32:45;9.30;99.90
21625;DHT22;10974;51.034;3.744;2022-11-15T06:35:10;9.30;99.90
21625;DHT22;10974;51.034;3.744;2022-11-15T06:37:36;9.30;99.90
21625;DHT22;10974;51.034;3.744;2022-11-15T06:40:02;9.30;99.90
21625;DHT22;10974;51.034;3.744;2022-11-15T06:42:27;9.30;99.90
21625;DHT22;10974;51.034;3.744;2022-11-15T06:44:53;9.30;99.90
21625;DHT22;10974;51.034;3.744;2022-11-15T06:47:19;9.20;99.90
21625;DHT22;10974;51.034;3.744;2022-11-15T06:49:44;9.30;99.90
21625;DHT22;10974;51.034;3.744;2022-11-15T06:52:10;9.30;99.90
21625;DHT22;10974;51.034;3.744;2022-11-15T06:54:35;9.30;99.90
21625;DHT22;10974;51.034;3.744;2022-11-15T06:57:01;9.30;99.90
21625;DHT22;10974;51.034;3.744;2022-11-15T06:59:27;9.40;99.90
21625;DHT22;10974;51.034;3.744;2022-11-15T07:01:52;9.40;99.90
21625;DHT22;10974;51.034;3.744;2022-11-15T07:04:18;9.40;99.90
21625;DHT22;10974;51.034;3.744;2022-11-15T07:06:46;9.40;99.90
21625;DHT22;10974;51.034;3.744;2022-11-15T07:09:13;9.40;99.90
21625;DHT22;10974;51.034;3.744;2022-11-15T07:11:38;9.40;99.90
21625;DHT22;10974;51.034;3.744;2022-11-15T07:14:04;9.40;99.90
21625;DHT22;10974;51.034;3.744;2022-11-15T07:16:30;9.40;99.90
21625;DHT22;10974;51.034;3.744;2022-11-15T07:18:55;9.40;99.90
21625;DHT22;10974;51.034;3.744;2022-11-15T07:21:21;9.50;99.90
21625;DHT22;10974;51.034;3.744;2022-11-15T07:23:47;9.40;99.90
21625;DHT22;10974;51.034;3.744;2022-11-15T07:26:12;9.50;99.90
21625;DHT22;10974;51.034;3.744;2022-11-15T07:28:38;9.40;99.90
21625;DHT22;10974;51.034;3.744;2022-11-15T07:31:06;9.50;99.90
21625;DHT22;10974;51.034;3.744;2022-11-15T07:33:32;9.50;99.90
21625;DHT22;10974;51.034;3.744;2022-11-15T07:36:01;9.50;99.90
21625;DHT22;10974;51.034;3.744;2022-11-15T07:38:28;9.50;99.90
21625;DHT22;10974;51.034;3.744;2022-11-15T07:40:58;9.50;99.90
21625;DHT22;10974;51.034;3.744;2022-11-15T07:43:24;9.60;99.90
21625;DHT22;10974;51.034;3.744;2022-11-15T07:45:50;9.70;99.90
21625;DHT22;10974;51.034;3.744;2022-11-15T07:48:15;9.70;99.90
21625;DHT22;10974;51.034;3.744;2022-11-15T07:50:41;9.80;99.90
21625;DHT22;10974;51.034;3.744;2022-11-15T07:53:09;9.80;99.90
21625;DHT22;10974;51.034;3.744;2022-11-15T07:55:34;9.80;99.90
21625;DHT22;10974;51.034;3.744;2022-11-15T07:58:05;9.80;99.90
21625;DHT22;10974;51.034;3.744;2022-11-15T08:00:31;9.80;99.90
21625;DHT22;10974;51.034;3.744;2022-11-15T08:03:12;9.80;99.90
21625;DHT22;10974;51.034;3.744;2022-11-15T08:05:39;9.90;99.90
21625;DHT22;10974;51.034;3.744;2022-11-15T08:08:06;9.90;99.90
21625;DHT22;10974;51.034;3.744;2022-11-15T08:10:33;9.90;99.90
21625;DHT22;10974;51.034;3.744;2022-11-15T08:13:00;9.90;99.90
21625;DHT22;10974;51.034;3.744;2022-11-15T08:15:27;9.90;99.90
21625;DHT22;10974;51.034;3.744;2022-11-15T08:17:56;10.00;99.90
21625;DHT22;10974;51.034;3.744;2022-11-15T08:20:23;10.00;99.90
21625;DHT22;10974;51.034;3.744;2022-11-15T08:22:49;10.10;99.90
21625;DHT22;10974;51.034;3.744;2022-11-15T08:25:15;10.10;99.90
21625;DHT22;10974;51.034;3.744;2022-11-15T08:27:41;10.20;99.90
21625;DHT22;10974;51.034;3.744;2022-11-15T08:30:07;10.20;99.90
21625;DHT22;10974;51.034;3.744;2022-11-15T08:32:33;10.20;99.90
21625;DHT22;10974;51.034;3.744;2022-11-15T08:34:59;10.30;99.90
21625;DHT22;10974;51.034;3.744;2022-11-15T08:37:25;10.40;99.90
21625;DHT22;10974;51.034;3.744;2022-11-15T08:39:50;10.40;99.90
21625;DHT22;10974;51.034;3.744;2022-11-15T08:42:16;10.40;99.90
21625;DHT22;10974;51.034;3.744;2022-11-15T08:44:42;10.50;99.90
21625;DHT22;10974;51.034;3.744;2022-11-15T08:47:11;10.50;99.90
21625;DHT22;10974;51.034;3.744;2022-11-15T08:49:36;10.50;99.90
21625;DHT22;10974;51.034;3.744;2022-11-15T08:52:02;10.60;99.90
21625;DHT22;10974;51.034;3.744;2022-11-15T08:54:28;10.70;99.90
21625;DHT22;10974;51.034;3.744;2022-11-15T08:56:53;10.80;99.90
21625;DHT22;10974;51.034;3.744;2022-11-15T08:59:19;10.80;99.90
21625;DHT22;10974;51.034;3.744;2022-11-15T09:01:45;10.90;99.90
21625;DHT22;10974;51.034;3.744;2022-11-15T09:04:10;11.00;99.90
21625;DHT22;10974;51.034;3.744;2022-11-15T09:06:36;11.10;99.90
21625;DHT22;10974;51.034;3.744;2022-11-15T09:09:02;11.30;99.90
21625;DHT22;10974;51.034;3.744;2022-11-15T09:11:28;11.40;99.90
21625;DHT22;10974;51.034;3.744;2022-11-15T09:13:53;11.40;99.90
21625;DHT22;10974;51.034;3.744;2022-11-15T09:16:19;11.60;99.90
21625;DHT22;10974;51.034;3.744;2022-11-15T09:18:45;11.90;99.90
21625;DHT22;10974;51.034;3.744;2022-11-15T09:21:11;12.00;99.90
21625;DHT22;10974;51.034;3.744;2022-11-15T09:23:37;11.70;99.90
21625;DHT22;10974;51.034;3.744;2022-11-15T09:26:05;12.00;99.90
21625;DHT22;10974;51.034;3.744;2022-11-15T09:28:31;12.30;99.90
21625;DHT22;10974;51.034;3.744;2022-11-15T09:31:03;12.60;99.90
21625;DHT22;10974;51.034;3.744;2022-11-15T09:33:29;12.70;99.90
21625;DHT22;10974;51.034;3.744;2022-11-15T09:36:00;12.60;99.90
21625;DHT22;10974;51.034;3.744;2022-11-15T09:38:26;12.80;99.90
21625;DHT22;10974;51.034;3.744;2022-11-15T09:43:44;13.10;99.90
21625;DHT22;10974;51.034;3.744;2022-11-15T09:48:55;13.10;99.90
21625;DHT22;10974;51.034;3.744;2022-11-15T09:51:41;13.10;99.90
21625;DHT22;10974;51.034;3.744;2022-11-15T09:54:49;13.00;99.90
21625;DHT22;10974;51.034;3.744;2022-11-15T09:57:39;13.10;99.90
21625;DHT22;10974;51.034;3.744;2022-11-15T10:00:37;13.50;99.90
21625;DHT22;10974;51.034;3.744;2022-11-15T10:03:13;13.70;99.90
21625;DHT22;10974;51.034;3.744;2022-11-15T10:05:46;13.60;99.90
21625;DHT22;10974;51.034;3.744;2022-11-15T10:10:57;13.00;99.90
21625;DHT22;10974;51.034;3.744;2022-11-15T10:13:34;12.90;99.90
21625;DHT22;10974;51.034;3.744;2022-11-15T10:16:26;12.80;99.90
21625;DHT22;10974;51.034;3.744;2022-11-15T10:24:26;12.70;99.90
21625;DHT22;10974;51.034;3.744;2022-11-15T10:26:56;12.70;99.90
21625;DHT22;10974;51.034;3.744;2022-11-15T10:29:23;12.70;99.90
21625;DHT22;10974;51.034;3.744;2022-11-15T10:31:50;12.80;99.90
21625;DHT22;10974;51.034;3.744;2022-11-15T10:34:21;12.90;99.90
21625;DHT22;10974;51.034;3.744;2022-11-15T10:36:58;12.90;99.90
21625;DHT22;10974;51.034;3.744;2022-11-15T10:39:25;13.00;99.90
21625;DHT22;10974;51.034;3.744;2022-11-15T10:41:51;13.10;99.90
21625;DHT22;10974;51.034;3.744;2022-11-15T10:47:19;13.40;99.90
21625;DHT22;10974;51.034;3.744;2022-11-15T10:50:04;13.50;99.90
21625;DHT22;10974;51.034;3.744;2022-11-15T10:52:31;13.80;99.90
21625;DHT22;10974;51.034;3.744;2022-11-15T10:55:00;13.70;99.90
21625;DHT22;10974;51.034;3.744;2022-11-15T10:57:39;13.70;99.90
21625;DHT22;10974;51.034;3.744;2022-11-15T11:00:26;13.80;99.90
21625;DHT22;10974;51.034;3.744;2022-11-15T11:05:39;13.90;99.90
21625;DHT22;10974;51.034;3.744;2022-11-15T11:11:00;13.80;99.90
21625;DHT22;10974;51.034;3.744;2022-11-15T11:13:37;13.70;99.90
21625;DHT22;10974;51.034;3.744;2022-11-15T11:18:38;13.90;99.90
21625;DHT22;10974;51.034;3.744;2022-11-15T11:21:14;13.80;99.90
21625;DHT22;10974;51.034;3.744;2022-11-15T11:27:32;13.60;99.90
21625;DHT22;10974;51.034;3.744;2022-11-15T11:35:34;13.40;99.90
21625;DHT22;10974;51.034;3.744;2022-11-15T11:48:49;13.40;99.90
21625;DHT22;10974;51.034;3.744;2022-11-15T11:54:42;13.30;99.90
21625;DHT22;10974;51.034;3.744;2022-11-15T11:57:33;13.20;99.90
21625;DHT22;10974;51.034;3.744;2022-11-15T12:00:19;13.30;99.90
21625;DHT22;10974;51.034;3.744;2022-11-15T12:11:22;13.30;99.90
21625;DHT22;10974;51.034;3.744;2022-11-15T12:13:53;13.30;99.90
21625;DHT22;10974;51.034;3.744;2022-11-15T12:16:27;13.30;99.90
21625;DHT22;10974;51.034;3.744;2022-11-15T12:18:54;13.20;99.90
21625;DHT22;10974;51.034;3.744;2022-11-15T12:24:34;13.30;99.90
21625;DHT22;10974;51.034;3.744;2022-11-15T12:27:16;13.30;99.90
21625;DHT22;10974;51.034;3.744;2022-11-15T12:29:46;13.30;99.90
21625;DHT22;10974;51.034;3.744;2022-11-15T12:34:52;13.30;99.90
21625;DHT22;10974;51.034;3.744;2022-11-15T12:37:48;13.30;99.90
21625;DHT22;10974;51.034;3.744;2022-11-15T12:40:33;13.30;99.90
21625;DHT22;10974;51.034;3.744;2022-11-15T12:43:05;13.30;99.90
21625;DHT22;10974;51.034;3.744;2022-11-15T12:45:37;13.30;99.90
21625;DHT22;10974;51.034;3.744;2022-11-15T12:53:26;13.30;99.90
21625;DHT22;10974;51.034;3.744;2022-11-15T12:58:51;13.30;99.90
21625;DHT22;10974;51.034;3.744;2022-11-15T13:06:51;13.20;99.90
21625;DHT22;10974;51.034;3.744;2022-11-15T13:11:58;13.30;99.90
21625;DHT22;10974;51.034;3.744;2022-11-15T13:14:40;13.20;99.90
21625;DHT22;10974;51.034;3.744;2022-11-15T13:19:46;13.20;99.90
21625;DHT22;10974;51.034;3.744;2022-11-15T13:22:13;13.20;99.90
21625;DHT22;10974;51.034;3.744;2022-11-15T13:24:58;13.20;99.90
21625;DHT22;10974;51.034;3.744;2022-11-15T13:27:26;13.30;99.90
21625;DHT22;10974;51.034;3.744;2022-11-15T13:29:52;13.20;99.90
21625;DHT22;10974;51.034;3.744;2022-11-15T13:32:18;13.30;99.90
21625;DHT22;10974;51.034;3.744;2022-11-15T13:34:49;13.20;99.90
21625;DHT22;10974;51.034;3.744;2022-11-15T13:39:47;13.20;99.90
21625;DHT22;10974;51.034;3.744;2022-11-15T13:42:18;13.10;99.90
21625;DHT22;10974;51.034;3.744;2022-11-15T13:44:58;13.10;99.90
21625;DHT22;10974;51.034;3.744;2022-11-15T13:47:28;12.90;99.90
21625;DHT22;10974;51.034;3.744;2022-11-15T13:49:58;13.00;99.90
21625;DHT22;10974;51.034;3.744;2022-11-15T13:52:28;12.90;99.90
21625;DHT22;10974;51.034;3.744;2022-11-15T13:55:02;13.00;99.90
21625;DHT22;10974;51.034;3.744;2022-11-15T13:57:47;12.90;99.90
21625;DHT22;10974;51.034;3.744;2022-11-15T14:00:39;13.00;99.90
21625;DHT22;10974;51.034;3.744;2022-11-15T14:03:12;13.00;99.90
21625;DHT22;10974;51.034;3.744;2022-11-15T14:05:40;13.00;99.90
21625;DHT22;10974;51.034;3.744;2022-11-15T14:10:41;12.80;99.90
21625;DHT22;10974;51.034;3.744;2022-11-15T14:13:27;12.70;99.90
21625;DHT22;10974;51.034;3.744;2022-11-15T14:15:53;12.70;99.90
21625;DHT22;10974;51.034;3.744;2022-11-15T14:18:44;12.70;99.90
21625;DHT22;10974;51.034;3.744;2022-11-15T14:21:10;12.60;99.90
21625;DHT22;10974;51.034;3.744;2022-11-15T14:23:36;12.60;99.90
21625;DHT22;10974;51.034;3.744;2022-11-15T14:26:02;12.50;99.90
21625;DHT22;10974;51.034;3.744;2022-11-15T14:28:30;12.50;99.90
21625;DHT22;10974;51.034;3.744;2022-11-15T14:30:59;12.50;99.90
21625;DHT22;10974;51.034;3.744;2022-11-15T14:33:32;12.40;99.90
21625;DHT22;10974;51.034;3.744;2022-11-15T14:36:06;12.40;99.90
21625;DHT22;10974;51.034;3.744;2022-11-15T14:38:35;12.20;99.90
21625;DHT22;10974;51.034;3.744;2022-11-15T14:41:01;12.30;99.90
21625;DHT22;10974;51.034;3.744;2022-11-15T14:43:27;12.20;99.90
21625;DHT22;10974;51.034;3.744;2022-11-15T14:45:52;12.20;99.90
21625;DHT22;10974;51.034;3.744;2022-11-15T14:48:18;12.10;99.90
21625;DHT22;10974;51.034;3.744;2022-11-15T14:50:44;12.00;99.90
21625;DHT22;10974;51.034;3.744;2022-11-15T14:53:15;12.00;99.90
21625;DHT22;10974;51.034;3.744;2022-11-15T14:55:41;11.90;99.90
21625;DHT22;10974;51.034;3.744;2022-11-15T14:58:08;11.90;99.90
21625;DHT22;10974;51.034;3.744;2022-11-15T15:00:35;11.80;99.90
21625;DHT22;10974;51.034;3.744;2022-11-15T15:03:01;11.80;99.90
21625;DHT22;10974;51.034;3.744;2022-11-15T15:05:43;11.80;99.90
21625;DHT22;10974;51.034;3.744;2022-11-15T15:08:09;11.80;99.90
21625;DHT22;10974;51.034;3.744;2022-11-15T15:10:41;11.80;99.90
21625;DHT22;10974;51.034;3.744;2022-11-15T15:13:25;11.70;99.90
21625;DHT22;10974;51.034;3.744;2022-11-15T15:15:51;11.70;99.90
21625;DHT22;10974;51.034;3.744;2022-11-15T15:18:18;11.70;99.90
21625;DHT22;10974;51.034;3.744;2022-11-15T15:20:45;11.70;99.90
21625;DHT22;10974;51.034;3.744;2022-11-15T15:23:16;11.70;99.90
21625;DHT22;10974;51.034;3.744;2022-11-15T15:25:42;11.60;99.90
21625;DHT22;10974;51.034;3.744;2022-11-15T15:28:09;11.60;99.90
21625;DHT22;10974;51.034;3.744;2022-11-15T15:30:35;11.60;99.90
21625;DHT22;10974;51.034;3.744;2022-11-15T15:33:00;11.60;99.90
21625;DHT22;10974;51.034;3.744;2022-11-15T15:35:30;11.60;99.90
21625;DHT22;10974;51.034;3.744;2022-11-15T15:37:57;11.60;99.90
21625;DHT22;10974;51.034;3.744;2022-11-15T15:40:24;11.60;99.90
21625;DHT22;10974;51.034;3.744;2022-11-15T15:42:50;11.60;99.90
21625;DHT22;10974;51.034;3.744;2022-11-15T15:45:17;11.60;99.90
21625;DHT22;10974;51.034;3.744;2022-11-15T15:47:44;11.60;99.90
21625;DHT22;10974;51.034;3.744;2022-11-15T15:50:28;11.70;99.90
21625;DHT22;10974;51.034;3.744;2022-11-15T15:52:57;11.60;99.90
21625;DHT22;10974;51.034;3.744;2022-11-15T15:55:26;11.70;99.90
21625;DHT22;10974;51.034;3.744;2022-11-15T15:57:53;11.70;99.90
21625;DHT22;10974;51.034;3.744;2022-11-15T16:00:19;11.70;99.90
21625;DHT22;10974;51.034;3.744;2022-11-15T16:02:45;11.70;99.90
21625;DHT22;10974;51.034;3.744;2022-11-15T16:05:12;11.70;99.90
21625;DHT22;10974;51.034;3.744;2022-11-15T16:07:38;11.80;99.90
21625;DHT22;10974;51.034;3.744;2022-11-15T16:10:29;11.80;99.90
21625;DHT22;10974;51.034;3.744;2022-11-15T16:12:56;11.80;99.90
21625;DHT22;10974;51.034;3.744;2022-11-15T16:15:24;11.80;99.90
21625;DHT22;10974;51.034;3.744;2022-11-15T16:22:55;11.80;99.90
21625;DHT22;10974;51.034;3.744;2022-11-15T16:25:21;11.80;99.90
21625;DHT22;10974;51.034;3.744;2022-11-15T16:27:47;11.80;99.90
21625;DHT22;10974;51.034;3.744;2022-11-15T16:30:15;11.80;99.90
21625;DHT22;10974;51.034;3.744;2022-11-15T16:32:42;11.80;99.90
21625;DHT22;10974;51.034;3.744;2022-11-15T16:35:14;11.80;99.90
21625;DHT22;10974;51.034;3.744;2022-11-15T16:37:40;11.80;99.90
21625;DHT22;10974;51.034;3.744;2022-11-15T16:40:33;11.80;99.90
21625;DHT22;10974;51.034;3.744;2022-11-15T16:42:59;11.80;99.90
21625;DHT22;10974;51.034;3.744;2022-11-15T16:45:27;11.90;99.90
21625;DHT22;10974;51.034;3.744;2022-11-15T16:47:55;11.90;99.90
21625;DHT22;10974;51.034;3.744;2022-11-15T16:50:29;11.90;99.90
21625;DHT22;10974;51.034;3.744;2022-11-15T16:52:57;11.90;99.90
21625;DHT22;10974;51.034;3.744;2022-11-15T16:55:25;11.90;99.90
21625;DHT22;10974;51.034;3.744;2022-11-15T16:57:53;11.90;99.90
21625;DHT22;10974;51.034;3.744;2022-11-15T17:00:20;11.90;99.90
21625;DHT22;10974;51.034;3.744;2022-11-15T17:02:47;11.90;99.90
21625;DHT22;10974;51.034;3.744;2022-11-15T17:05:15;11.90;99.90
21625;DHT22;10974;51.034;3.744;2022-11-15T17:07:41;11.90;99.90
21625;DHT22;10974;51.034;3.744;2022-11-15T17:10:08;11.90;99.90
21625;DHT22;10974;51.034;3.744;2022-11-15T17:12:35;11.90;99.90
21625;DHT22;10974;51.034;3.744;2022-11-15T17:15:02;12.00;99.90
21625;DHT22;10974;51.034;3.744;2022-11-15T17:17:29;11.90;99.90
21625;DHT22;10974;51.034;3.744;2022-11-15T17:19:55;11.90;99.90
21625;DHT22;10974;51.034;3.744;2022-11-15T17:22:20;11.90;99.90
21625;DHT22;10974;51.034;3.744;2022-11-15T17:24:46;11.90;99.90
21625;DHT22;10974;51.034;3.744;2022-11-15T17:27:12;11.90;99.90
21625;DHT22;10974;51.034;3.744;2022-11-15T17:29:37;11.90;99.90
21625;DHT22;10974;51.034;3.744;2022-11-15T17:32:03;11.90;99.90
21625;DHT22;10974;51.034;3.744;2022-11-15T17:34:29;11.90;99.90
21625;DHT22;10974;51.034;3.744;2022-11-15T17:36:55;11.90;99.90
21625;DHT22;10974;51.034;3.744;2022-11-15T17:39:20;11.90;99.90
21625;DHT22;10974;51.034;3.744;2022-11-15T17:41:48;11.90;99.90
21625;DHT22;10974;51.034;3.744;2022-11-15T17:44:14;11.90;99.90
21625;DHT22;10974;51.034;3.744;2022-11-15T17:46:40;11.80;99.90
21625;DHT22;10974;51.034;3.744;2022-11-15T17:49:06;11.90;99.90
21625;DHT22;10974;51.034;3.744;2022-11-15T17:51:32;11.90;99.90
21625;DHT22;10974;51.034;3.744;2022-11-15T17:53:58;11.90;99.90
21625;DHT22;10974;51.034;3.744;2022-11-15T17:56:25;11.90;99.90
21625;DHT22;10974;51.034;3.744;2022-11-15T17:58:56;11.90;99.90
21625;DHT22;10974;51.034;3.744;2022-11-15T18:01:24;11.90;99.90
21625;DHT22;10974;51.034;3.744;2022-11-15T18:03:50;11.90;99.90
21625;DHT22;10974;51.034;3.744;2022-11-15T18:06:17;11.80;99.90
21625;DHT22;10974;51.034;3.744;2022-11-15T18:08:45;11.80;99.90
21625;DHT22;10974;51.034;3.744;2022-11-15T18:11:20;11.90;99.90
21625;DHT22;10974;51.034;3.744;2022-11-15T18:13:48;11.80;99.90
21625;DHT22;10974;51.034;3.744;2022-11-15T18:16:20;11.80;99.90
21625;DHT22;10974;51.034;3.744;2022-11-15T18:18:46;11.80;99.90
21625;DHT22;10974;51.034;3.744;2022-11-15T18:21:17;11.80;99.90
21625;DHT22;10974;51.034;3.744;2022-11-15T18:23:45;11.80;99.90
21625;DHT22;10974;51.034;3.744;2022-11-15T18:26:15;11.80;99.90
21625;DHT22;10974;51.034;3.744;2022-11-15T18:28:46;11.90;99.90
21625;DHT22;10974;51.034;3.744;2022-11-15T18:31:17;11.90;99.90
21625;DHT22;10974;51.034;3.744;2022-11-15T18:33:43;11.90;99.90
21625;DHT22;10974;51.034;3.744;2022-11-15T18:36:12;11.90;99.90
21625;DHT22;10974;51.034;3.744;2022-11-15T18:38:38;11.90;99.90
21625;DHT22;10974;51.034;3.744;2022-11-15T18:41:06;11.90;99.90
21625;DHT22;10974;51.034;3.744;2022-11-15T18:43:32;11.90;99.90
21625;DHT22;10974;51.034;3.744;2022-11-15T18:46:03;11.90;99.90
21625;DHT22;10974;51.034;3.744;2022-11-15T18:48:33;11.90;99.90
21625;DHT22;10974;51.034;3.744;2022-11-15T18:51:13;11.90;99.90
21625;DHT22;10974;51.034;3.744;2022-11-15T18:53:39;11.90;99.90
21625;DHT22;10974;51.034;3.744;2022-11-15T18:56:13;11.90;99.90
21625;DHT22;10974;51.034;3.744;2022-11-15T18:58:42;12.00;99.90
21625;DHT22;10974;51.034;3.744;2022-11-15T19:01:14;11.90;99.90
21625;DHT22;10974;51.034;3.744;2022-11-15T19:03:42;12.00;99.90
21625;DHT22;10974;51.034;3.744;2022-11-15T19:06:10;12.10;99.90
21625;DHT22;10974;51.034;3.744;2022-11-15T19:08:37;12.00;99.90
21625;DHT22;10974;51.034;3.744;2022-11-15T19:13:33;11.90;99.90
21625;DHT22;10974;51.034;3.744;2022-11-15T19:16:00;12.00;99.90
21625;DHT22;10974;51.034;3.744;2022-11-15T19:18:26;12.10;99.90
21625;DHT22;10974;51.034;3.744;2022-11-15T19:20:53;12.00;99.90
21625;DHT22;10974;51.034;3.744;2022-11-15T19:23:24;12.00;99.90
21625;DHT22;10974;51.034;3.744;2022-11-15T19:25:55;12.10;99.90
21625;DHT22;10974;51.034;3.744;2022-11-15T19:28:21;12.10;99.90
21625;DHT22;10974;51.034;3.744;2022-11-15T19:30:46;12.10;99.90
21625;DHT22;10974;51.034;3.744;2022-11-15T19:33:12;12.10;99.90
21625;DHT22;10974;51.034;3.744;2022-11-15T19:35:38;12.20;99.90
21625;DHT22;10974;51.034;3.744;2022-11-15T19:38:03;12.20;99.90
21625;DHT22;10974;51.034;3.744;2022-11-15T19:40:32;12.20;99.90
21625;DHT22;10974;51.034;3.744;2022-11-15T19:42:57;12.20;99.90
21625;DHT22;10974;51.034;3.744;2022-11-15T19:45:23;12.20;99.90
21625;DHT22;10974;51.034;3.744;2022-11-15T19:47:49;12.30;99.90
21625;DHT22;10974;51.034;3.744;2022-11-15T19:50:15;12.20;99.90
21625;DHT22;10974;51.034;3.744;2022-11-15T19:52:40;12.30;99.90
21625;DHT22;10974;51.034;3.744;2022-11-15T19:55:06;12.30;99.90
21625;DHT22;10974;51.034;3.744;2022-11-15T19:57:32;12.30;99.90
21625;DHT22;10974;51.034;3.744;2022-11-15T19:59:58;12.30;99.90
21625;DHT22;10974;51.034;3.744;2022-11-15T20:02:23;12.40;99.90
21625;DHT22;10974;51.034;3.744;2022-11-15T20:04:49;12.30;99.90
21625;DHT22;10974;51.034;3.744;2022-11-15T20:07:14;12.30;99.90
21625;DHT22;10974;51.034;3.744;2022-11-15T20:09:40;12.30;99.90
21625;DHT22;10974;51.034;3.744;2022-11-15T20:12:06;12.40;99.90
21625;DHT22;10974;51.034;3.744;2022-11-15T20:14:31;12.30;99.90
21625;DHT22;10974;51.034;3.744;2022-11-15T20:16:57;12.40;99.90
21625;DHT22;10974;51.034;3.744;2022-11-15T20:19:23;12.30;99.90
21625;DHT22;10974;51.034;3.744;2022-11-15T20:21:48;12.30;99.90
21625;DHT22;10974;51.034;3.744;2022-11-15T20:24:14;12.40;99.90
21625;DHT22;10974;51.034;3.744;2022-11-15T20:26:40;12.50;99.90
21625;DHT22;10974;51.034;3.744;2022-11-15T20:29:06;12.40;99.90
21625;DHT22;10974;51.034;3.744;2022-11-15T20:31:32;12.40;99.90
21625;DHT22;10974;51.034;3.744;2022-11-15T20:33:58;12.40;99.90
21625;DHT22;10974;51.034;3.744;2022-11-15T20:36:24;12.40;99.90
21625;DHT22;10974;51.034;3.744;2022-11-15T20:38:50;12.50;99.90
21625;DHT22;10974;51.034;3.744;2022-11-15T20:41:16;12.40;99.90
21625;DHT22;10974;51.034;3.744;2022-11-15T20:43:41;12.40;99.90
21625;DHT22;10974;51.034;3.744;2022-11-15T20:46:09;12.40;99.90
21625;DHT22;10974;51.034;3.744;2022-11-15T20:48:35;12.40;99.90
21625;DHT22;10974;51.034;3.744;2022-11-15T20:51:06;12.40;99.90
21625;DHT22;10974;51.034;3.744;2022-11-15T20:53:34;12.40;99.90
21625;DHT22;10974;51.034;3.744;2022-11-15T20:56:05;12.40;99.90
21625;DHT22;10974;51.034;3.744;2022-11-15T20:58:32;12.40;99.90
21625;DHT22;10974;51.034;3.744;2022-11-15T21:00:58;12.40;99.90
21625;DHT22;10974;51.034;3.744;2022-11-15T21:03:24;12.50;99.90
21625;DHT22;10974;51.034;3.744;2022-11-15T21:05:51;12.40;99.90
21625;DHT22;10974;51.034;3.744;2022-11-15T21:08:17;12.40;99.90
21625;DHT22;10974;51.034;3.744;2022-11-15T21:10:43;12.40;99.90
21625;DHT22;10974;51.034;3.744;2022-11-15T21:13:27;12.40;99.90
21625;DHT22;10974;51.034;3.744;2022-11-15T21:15:56;12.40;99.90
21625;DHT22;10974;51.034;3.744;2022-11-15T21:18:22;12.40;99.90
21625;DHT22;10974;51.034;3.744;2022-11-15T21:20:48;12.40;99.90
21625;DHT22;10974;51.034;3.744;2022-11-15T21:23:14;12.50;99.90
21625;DHT22;10974;51.034;3.744;2022-11-15T21:25:40;12.50;99.90
21625;DHT22;10974;51.034;3.744;2022-11-15T21:28:06;12.50;99.90
21625;DHT22;10974;51.034;3.744;2022-11-15T21:30:31;12.50;99.90
21625;DHT22;10974;51.034;3.744;2022-11-15T21:32:57;12.50;99.90
21625;DHT22;10974;51.034;3.744;2022-11-15T21:35:23;12.50;99.90
21625;DHT22;10974;51.034;3.744;2022-11-15T21:37:48;12.50;99.90